Time;durP1;ratioP1;P1;durP2;ratioP2;P2;SDS_P1;SDS_P2;PMS_P1;PMS_P2;Temp;Humidity;BMP_temperature;BMP_pressure;BME280_temperature;BME280_humidity;BME280_pressure;Samples;Min_cycle;Max_cycle;Signal;HPM_P1;HPM_P2
2022/10/30 00:02:16;;;;;;;18.80;9.48;;;13.40;99.90;;;;;;5032722;28;20131;-82
2022/10/30 00:04:42;;;;;;;13.95;7.65;;;13.30;99.90;;;;;;5036583;28;20232;-82
2022/10/30 00:07:08;;;;;;;12.43;8.30;;;13.30;99.90;;;;;;5051865;28;20052;-79
2022/10/30 00:09:33;;;;;;;11.43;7.68;;;13.30;99.90;;;;;;5044409;28;20051;-81
2022/10/30 00:11:59;;;;;;;17.30;10.32;;;13.30;99.90;;;;;;5044299;28;20049;-81
2022/10/30 00:14:25;;;;;;;16.70;10.57;;;13.30;99.90;;;;;;5046392;28;20487;-82
2022/10/30 00:16:50;;;;;;;13.50;9.27;;;13.30;99.90;;;;;;5051035;28;20694;-81
2022/10/30 00:19:16;;;;;;;12.18;8.60;;;13.20;99.90;;;;;;5044432;28;20143;-81
2022/10/30 00:21:42;;;;;;;15.13;9.13;;;13.30;99.90;;;;;;5040272;28;20088;-80
2022/10/30 00:24:09;;;;;;;15.88;8.88;;;13.30;99.90;;;;;;5058399;28;20100;-81
2022/10/30 00:26:34;;;;;;;17.85;9.13;;;13.20;99.90;;;;;;5048659;28;20140;-83
2022/10/30 00:29:00;;;;;;;13.85;8.88;;;13.20;99.90;;;;;;5040314;28;20678;-82
2022/10/30 00:31:26;;;;;;;15.82;10.05;;;13.20;99.90;;;;;;5044453;28;20051;-77
2022/10/30 00:33:53;;;;;;;15.93;10.10;;;13.20;99.90;;;;;;5045840;28;20114;-82
2022/10/30 00:36:19;;;;;;;15.73;9.60;;;13.20;99.90;;;;;;5048233;28;20048;-81
2022/10/30 00:38:45;;;;;;;14.95;10.25;;;13.20;99.90;;;;;;5052592;28;20403;-82
2022/10/30 00:41:20;;;;;;;17.73;9.90;;;13.20;99.90;;;;;;5045730;28;20060;-82
2022/10/30 00:43:46;;;;;;;21.48;10.13;;;13.20;99.90;;;;;;5056419;28;20848;-81
2022/10/30 00:46:29;;;;;;;12.15;8.07;;;13.20;99.90;;;;;;5051743;28;20052;-82
2022/10/30 00:49:15;;;;;;;13.68;9.98;;;13.20;99.90;;;;;;5045599;28;20055;-81
2022/10/30 00:51:48;;;;;;;16.38;10.57;;;13.20;99.90;;;;;;5055130;28;20124;-81
2022/10/30 00:54:16;;;;;;;18.50;9.90;;;13.20;99.90;;;;;;5043096;28;20882;-80
2022/10/30 00:56:43;;;;;;;13.15;8.98;;;13.20;99.90;;;;;;5040602;28;20053;-81
2022/10/30 00:59:14;;;;;;;13.50;8.63;;;13.20;99.90;;;;;;5039069;28;20053;-81
2022/10/30 01:01:43;;;;;;;17.80;10.77;;;13.10;99.90;;;;;;5046754;28;20048;-83
2022/10/30 01:04:10;;;;;;;17.17;10.65;;;13.20;99.90;;;;;;5042678;28;20080;-82
2022/10/30 01:06:40;;;;;;;14.20;9.73;;;13.20;99.90;;;;;;5042055;28;20843;-83
2022/10/30 01:09:06;;;;;;;20.10;10.23;;;13.10;99.90;;;;;;5046858;28;21017;-78
2022/10/30 01:11:32;;;;;;;14.75;9.43;;;13.20;99.90;;;;;;5055223;28;20049;-82
2022/10/30 01:14:02;;;;;;;11.43;8.15;;;13.10;99.90;;;;;;5047458;28;20041;-82
2022/10/30 01:16:43;;;;;;;15.02;9.80;;;13.10;99.90;;;;;;5044233;28;20498;-81
2022/10/30 01:19:18;;;;;;;14.40;9.43;;;13.10;99.90;;;;;;5049638;28;20141;-81
2022/10/30 01:22:21;;;;;;;16.40;10.70;;;13.10;99.90;;;;;;5040048;28;20048;-81
2022/10/30 01:25:34;;;;;;;12.52;9.07;;;13.10;99.90;;;;;;5046927;28;20569;-79
2022/10/30 01:28:19;;;;;;;12.53;9.03;;;13.10;99.90;;;;;;5049905;28;20060;-82
2022/10/30 01:31:01;;;;;;;15.60;9.70;;;13.00;99.90;;;;;;5039200;28;20292;-80
2022/10/30 01:34:01;;;;;;;15.20;9.67;;;13.00;99.90;;;;;;5040049;28;20202;-79
2022/10/30 01:36:27;;;;;;;15.52;10.05;;;13.00;99.90;;;;;;5038705;28;20051;-81
2022/10/30 01:38:58;;;;;;;17.92;9.00;;;13.00;99.90;;;;;;5047217;28;20037;-80
2022/10/30 01:41:24;;;;;;;12.55;9.68;;;13.10;99.90;;;;;;5052904;28;20808;-81
2022/10/30 01:43:54;;;;;;;14.85;10.00;;;13.00;99.90;;;;;;5050885;28;20044;-80
2022/10/30 01:46:47;;;;;;;21.38;10.07;;;13.10;99.90;;;;;;5051652;28;20527;-81
2022/10/30 01:49:49;;;;;;;16.17;10.53;;;13.10;99.90;;;;;;5040056;28;20236;-80
2022/10/30 01:52:30;;;;;;;17.15;10.48;;;13.10;99.90;;;;;;5039516;28;20057;-82
2022/10/30 01:55:13;;;;;;;15.45;9.63;;;13.10;99.90;;;;;;5048219;28;20048;-82
2022/10/30 01:57:56;;;;;;;13.15;10.02;;;13.00;99.90;;;;;;5038925;28;20481;-79
2022/10/30 02:00:22;;;;;;;24.23;10.30;;;13.00;99.90;;;;;;5047793;28;20049;-80
2022/10/30 02:02:50;;;;;;;14.57;9.35;;;13.10;99.90;;;;;;5054570;28;20067;-81
2022/10/30 02:05:28;;;;;;;13.98;8.50;;;13.00;99.90;;;;;;5045709;28;20119;-81
2022/10/30 02:07:54;;;;;;;19.25;9.52;;;13.00;99.90;;;;;;5051092;28;20051;-81
2022/10/30 02:10:20;;;;;;;15.55;9.45;;;13.10;99.90;;;;;;5055144;28;20049;-81
2022/10/30 02:12:46;;;;;;;16.00;10.32;;;13.00;99.90;;;;;;5055512;28;20048;-80
2022/10/30 02:15:12;;;;;;;18.48;10.38;;;13.00;99.90;;;;;;5048242;28;20053;-80
2022/10/30 02:17:39;;;;;;;10.52;8.60;;;13.00;99.90;;;;;;5040382;28;21304;-81
2022/10/30 02:20:06;;;;;;;15.75;9.48;;;13.00;99.90;;;;;;5065910;28;20055;-82
2022/10/30 02:22:31;;;;;;;12.40;8.95;;;13.00;99.90;;;;;;5047959;28;20040;-80
2022/10/30 02:24:57;;;;;;;10.00;8.15;;;13.00;99.90;;;;;;5048414;28;20055;-81
2022/10/30 02:27:23;;;;;;;15.55;8.93;;;13.00;99.90;;;;;;5049765;28;20159;-80
2022/10/30 02:29:48;;;;;;;13.35;9.55;;;13.00;99.90;;;;;;5044558;28;20884;-81
2022/10/30 02:32:14;;;;;;;18.92;9.55;;;13.00;99.90;;;;;;5041909;28;20113;-81
2022/10/30 02:34:41;;;;;;;15.63;9.25;;;13.00;99.90;;;;;;5048809;28;20110;-81
2022/10/30 02:37:07;;;;;;;13.90;8.70;;;13.00;99.90;;;;;;5050375;28;20056;-81
2022/10/30 02:39:33;;;;;;;15.32;9.55;;;13.00;99.90;;;;;;5052773;28;20102;-81
2022/10/30 02:42:00;;;;;;;12.95;8.55;;;13.00;99.90;;;;;;5054802;28;20040;-79
2022/10/30 02:44:26;;;;;;;12.55;8.20;;;13.00;99.90;;;;;;5056984;28;20055;-78
2022/10/30 02:46:52;;;;;;;14.23;8.95;;;13.00;99.90;;;;;;5039579;28;20048;-80
2022/10/30 02:49:17;;;;;;;14.55;9.15;;;13.00;99.90;;;;;;5050724;28;20155;-80
2022/10/30 02:51:43;;;;;;;16.13;8.00;;;13.00;99.90;;;;;;5043043;28;20080;-81
2022/10/30 02:54:09;;;;;;;10.18;7.93;;;13.00;99.90;;;;;;5049169;28;20237;-80
2022/10/30 02:56:34;;;;;;;18.33;9.50;;;13.00;99.90;;;;;;5058564;28;20056;-81
2022/10/30 02:59:00;;;;;;;11.98;7.80;;;13.00;99.90;;;;;;5042872;28;20392;-80
2022/10/30 03:01:26;;;;;;;15.60;8.35;;;12.90;99.90;;;;;;5038912;28;20904;-80
2022/10/30 03:03:51;;;;;;;13.18;8.63;;;12.90;99.90;;;;;;5054105;28;20055;-81
2022/10/30 03:06:17;;;;;;;14.40;7.75;;;12.90;99.90;;;;;;5038682;28;20125;-80
2022/10/30 03:08:43;;;;;;;13.20;8.77;;;12.90;99.90;;;;;;5052889;28;20094;-81
2022/10/30 03:11:11;;;;;;;15.85;8.32;;;12.80;99.90;;;;;;5039699;28;20230;-79
2022/10/30 03:13:39;;;;;;;11.70;8.13;;;12.90;99.90;;;;;;5050594;28;20051;-81
2022/10/30 03:16:10;;;;;;;13.65;8.73;;;12.90;99.90;;;;;;5044488;28;20052;-81
2022/10/30 03:18:36;;;;;;;12.95;7.38;;;12.80;99.90;;;;;;5052117;28;20092;-80
2022/10/30 03:21:04;;;;;;;16.05;9.80;;;12.90;99.90;;;;;;5052486;28;20623;-80
2022/10/30 03:23:30;;;;;;;20.35;8.48;;;12.80;99.90;;;;;;5050479;28;20048;-82
2022/10/30 03:25:57;;;;;;;11.65;7.85;;;12.80;99.90;;;;;;5051013;28;20056;-82
2022/10/30 03:28:25;;;;;;;15.32;8.13;;;12.70;99.90;;;;;;5050859;28;20045;-82
2022/10/30 03:30:57;;;;;;;15.30;8.82;;;12.70;99.90;;;;;;5041954;28;20051;-81
2022/10/30 03:33:23;;;;;;;10.63;7.07;;;12.70;99.90;;;;;;5044103;28;20055;-81
2022/10/30 03:35:49;;;;;;;15.32;8.70;;;12.70;99.90;;;;;;5047187;28;20036;-81
2022/10/30 03:38:14;;;;;;;12.70;8.20;;;12.70;99.90;;;;;;5048534;28;20045;-82
2022/10/30 03:40:40;;;;;;;13.27;8.40;;;12.70;99.90;;;;;;5048852;28;20493;-81
2022/10/30 03:43:07;;;;;;;13.98;8.35;;;12.70;99.90;;;;;;5048552;28;20049;-78
2022/10/30 03:45:33;;;;;;;10.60;7.60;;;12.70;99.90;;;;;;5038425;28;20049;-79
2022/10/30 03:48:03;;;;;;;13.73;8.82;;;12.60;99.90;;;;;;5043956;28;20041;-79
2022/10/30 03:50:30;;;;;;;16.30;8.88;;;12.70;99.90;;;;;;5049327;28;20135;-81
2022/10/30 03:52:56;;;;;;;10.80;7.00;;;12.60;99.90;;;;;;5055443;28;20155;-81
2022/10/30 03:55:23;;;;;;;14.57;7.90;;;12.60;99.90;;;;;;5056210;28;20641;-81
2022/10/30 03:57:49;;;;;;;16.60;8.73;;;12.60;99.90;;;;;;5051387;28;20476;-81
2022/10/30 04:00:16;;;;;;;16.02;10.60;;;12.60;99.90;;;;;;5057746;28;20048;-81
2022/10/30 04:02:50;;;;;;;14.25;8.85;;;12.60;99.90;;;;;;5057454;28;20771;-80
2022/10/30 04:05:17;;;;;;;19.25;10.93;;;12.60;99.90;;;;;;5053164;28;20049;-82
2022/10/30 04:07:43;;;;;;;14.27;9.38;;;12.60;99.90;;;;;;5046774;28;20048;-79
2022/10/30 04:10:11;;;;;;;15.05;8.00;;;12.50;99.90;;;;;;5048296;28;20056;-80
2022/10/30 04:12:37;;;;;;;13.73;9.05;;;12.50;99.90;;;;;;5054373;28;20478;-81
2022/10/30 04:15:03;;;;;;;13.27;9.00;;;12.60;99.90;;;;;;5053828;28;20300;-80
2022/10/30 04:17:29;;;;;;;18.85;10.05;;;12.60;99.90;;;;;;5053967;28;20117;-80
2022/10/30 04:19:54;;;;;;;16.52;8.35;;;12.50;99.90;;;;;;5055103;28;20044;-81
2022/10/30 04:22:20;;;;;;;13.95;8.18;;;12.50;99.90;;;;;;5056677;28;20080;-81
2022/10/30 04:24:47;;;;;;;12.98;8.85;;;12.60;99.90;;;;;;5049502;28;20155;-79
2022/10/30 04:27:14;;;;;;;14.43;9.70;;;12.60;99.90;;;;;;5065605;28;20059;-80
2022/10/30 04:29:43;;;;;;;14.95;8.68;;;12.50;99.90;;;;;;5054018;28;20040;-82
2022/10/30 04:32:09;;;;;;;12.23;8.50;;;12.60;99.90;;;;;;5055995;28;20048;-81
2022/10/30 04:34:35;;;;;;;12.95;8.13;;;12.50;99.90;;;;;;5049852;28;20087;-81
2022/10/30 04:37:01;;;;;;;16.33;9.68;;;12.50;99.90;;;;;;5049981;28;20670;-81
2022/10/30 04:39:27;;;;;;;13.18;10.57;;;12.50;99.90;;;;;;5053393;28;20044;-80
2022/10/30 04:41:52;;;;;;;14.18;9.13;;;12.50;99.90;;;;;;5056255;28;20049;-79
2022/10/30 04:44:18;;;;;;;11.75;8.15;;;12.50;99.90;;;;;;5056027;28;20064;-81
2022/10/30 04:46:44;;;;;;;13.63;8.82;;;12.50;99.90;;;;;;5050775;28;20075;-77
2022/10/30 04:49:09;;;;;;;17.45;10.20;;;12.50;99.90;;;;;;5048843;28;21335;-80
2022/10/30 04:51:35;;;;;;;15.80;10.45;;;12.50;99.90;;;;;;5055879;28;20045;-81
2022/10/30 04:54:00;;;;;;;18.98;9.80;;;12.50;99.90;;;;;;5048157;28;20053;-81
2022/10/30 04:56:26;;;;;;;14.02;9.27;;;12.50;99.90;;;;;;5051349;28;20056;-78
2022/10/30 04:58:52;;;;;;;16.00;10.13;;;12.50;99.90;;;;;;5052757;28;20047;-80
2022/10/30 05:01:18;;;;;;;15.98;9.27;;;12.50;99.90;;;;;;5046648;28;20053;-80
2022/10/30 05:03:44;;;;;;;14.85;10.63;;;12.50;99.90;;;;;;5054031;28;20049;-78
2022/10/30 05:06:23;;;;;;;15.73;9.88;;;12.50;99.90;;;;;;5051691;28;20063;-80
2022/10/30 05:08:49;;;;;;;16.65;9.10;;;12.50;99.90;;;;;;5047045;28;20045;-81
2022/10/30 05:11:16;;;;;;;17.45;9.13;;;12.40;99.90;;;;;;5056088;28;20040;-81
2022/10/30 05:13:42;;;;;;;16.23;9.80;;;12.50;99.90;;;;;;5047833;28;20176;-80
2022/10/30 05:16:07;;;;;;;14.90;9.43;;;12.50;99.90;;;;;;5053479;28;20044;-77
2022/10/30 05:18:33;;;;;;;15.23;9.25;;;12.50;99.90;;;;;;5054365;28;20130;-81
2022/10/30 05:20:59;;;;;;;14.77;10.13;;;12.50;99.90;;;;;;5049968;28;20587;-78
2022/10/30 05:23:24;;;;;;;15.43;10.15;;;12.60;99.90;;;;;;5053161;28;20049;-78
2022/10/30 05:25:50;;;;;;;19.30;10.27;;;12.60;99.90;;;;;;5046563;28;20048;-81
2022/10/30 05:28:16;;;;;;;18.10;9.25;;;12.50;99.90;;;;;;5052858;28;20056;-81
2022/10/30 05:30:42;;;;;;;14.10;10.60;;;12.50;99.90;;;;;;5054340;28;20044;-81
2022/10/30 05:33:10;;;;;;;13.68;10.07;;;12.60;99.90;;;;;;5051101;28;20125;-80
2022/10/30 05:35:37;;;;;;;14.60;10.13;;;12.60;99.90;;;;;;5056437;28;20147;-81
2022/10/30 05:38:06;;;;;;;16.02;9.45;;;12.60;99.90;;;;;;5053048;28;20111;-78
2022/10/30 05:40:32;;;;;;;17.48;10.68;;;12.60;99.90;;;;;;5049264;28;20050;-81
2022/10/30 05:42:58;;;;;;;17.15;10.50;;;12.60;99.90;;;;;;5044860;28;20044;-78
2022/10/30 05:45:24;;;;;;;16.05;9.27;;;12.60;99.90;;;;;;5050911;28;20051;-80
2022/10/30 05:48:04;;;;;;;13.68;9.50;;;12.50;99.90;;;;;;5051703;28;20097;-80
2022/10/30 05:50:30;;;;;;;13.32;9.30;;;12.50;99.90;;;;;;5053753;28;20056;-80
2022/10/30 05:53:00;;;;;;;16.60;10.23;;;12.50;99.90;;;;;;5044493;28;20133;-80
2022/10/30 05:55:27;;;;;;;15.98;10.10;;;12.50;99.90;;;;;;5051352;28;20920;-77
2022/10/30 05:57:57;;;;;;;14.77;9.85;;;12.50;99.90;;;;;;5051914;28;20134;-79
2022/10/30 06:00:22;;;;;;;11.68;9.00;;;12.50;99.90;;;;;;5051100;28;20037;-81
2022/10/30 06:02:48;;;;;;;13.95;9.82;;;12.50;99.90;;;;;;5050519;28;20055;-80
2022/10/30 06:05:14;;;;;;;20.83;10.40;;;12.50;99.90;;;;;;5048281;28;20052;-79
2022/10/30 06:07:39;;;;;;;15.02;9.77;;;12.40;99.90;;;;;;5050706;28;20044;-80
2022/10/30 06:10:05;;;;;;;17.63;9.13;;;12.50;99.90;;;;;;5048425;28;21056;-80
2022/10/30 06:12:31;;;;;;;13.73;9.82;;;12.50;99.90;;;;;;5044911;28;20055;-82
2022/10/30 06:14:57;;;;;;;15.90;9.60;;;12.50;99.90;;;;;;5045761;28;20155;-81
2022/10/30 06:17:23;;;;;;;16.83;9.88;;;12.50;99.90;;;;;;5043476;28;20080;-81
2022/10/30 06:19:48;;;;;;;17.55;10.85;;;12.50;99.90;;;;;;5050997;28;20041;-80
2022/10/30 06:22:14;;;;;;;13.30;9.48;;;12.40;99.90;;;;;;5044854;28;20067;-80
2022/10/30 06:24:39;;;;;;;18.27;10.13;;;12.40;99.90;;;;;;5049474;28;20141;-80
2022/10/30 06:27:05;;;;;;;13.30;9.77;;;12.40;99.90;;;;;;5057291;28;20052;-81
2022/10/30 06:29:31;;;;;;;14.65;10.23;;;12.40;99.90;;;;;;5052662;28;20045;-81
2022/10/30 06:31:56;;;;;;;19.42;10.52;;;12.30;99.90;;;;;;5066612;28;20044;-76
2022/10/30 06:34:22;;;;;;;17.73;10.88;;;12.40;99.90;;;;;;5058464;28;20088;-80
2022/10/30 06:36:48;;;;;;;15.20;9.70;;;12.40;99.90;;;;;;5046367;28;20047;-79
2022/10/30 06:39:13;;;;;;;14.18;9.57;;;12.40;99.90;;;;;;5042947;28;20045;-80
2022/10/30 06:41:39;;;;;;;15.18;8.73;;;12.40;99.90;;;;;;5053485;28;20053;-77
2022/10/30 06:44:05;;;;;;;14.13;8.07;;;12.40;99.90;;;;;;5045622;28;20053;-80
2022/10/30 06:46:30;;;;;;;17.45;9.80;;;12.40;99.90;;;;;;5046665;28;20045;-80
2022/10/30 06:48:56;;;;;;;12.75;9.85;;;12.40;99.90;;;;;;5046173;28;20464;-78
2022/10/30 06:51:23;;;;;;;14.60;10.13;;;12.30;99.90;;;;;;5041071;28;20138;-78
2022/10/30 06:53:49;;;;;;;12.30;9.98;;;12.40;99.90;;;;;;5043519;28;20135;-77
2022/10/30 06:56:15;;;;;;;18.65;11.23;;;12.40;99.90;;;;;;5036485;28;20064;-81
2022/10/30 06:58:42;;;;;;;18.52;11.15;;;12.40;99.90;;;;;;5039721;28;20136;-81
2022/10/30 07:01:07;;;;;;;17.75;10.57;;;12.50;99.90;;;;;;5052077;28;20048;-78
2022/10/30 07:03:34;;;;;;;13.77;9.27;;;12.40;99.90;;;;;;5038561;28;20082;-78
2022/10/30 07:05:59;;;;;;;16.00;9.98;;;12.40;99.90;;;;;;5044902;28;20169;-80
2022/10/30 07:08:25;;;;;;;19.17;11.18;;;12.50;99.90;;;;;;5040598;28;20052;-80
2022/10/30 07:10:51;;;;;;;17.15;11.07;;;12.50;99.90;;;;;;5044353;28;20076;-81
2022/10/30 07:13:17;;;;;;;15.20;10.30;;;12.60;99.90;;;;;;5037746;28;20064;-80
2022/10/30 07:15:43;;;;;;;15.50;10.60;;;12.60;99.90;;;;;;5040842;28;20930;-78
2022/10/30 07:18:09;;;;;;;14.15;10.35;;;12.70;99.90;;;;;;5046659;28;20058;-80
2022/10/30 07:20:35;;;;;;;18.45;10.90;;;12.70;99.90;;;;;;5047092;28;20571;-80
2022/10/30 07:23:02;;;;;;;16.38;10.02;;;12.80;99.90;;;;;;5042002;28;20045;-80
2022/10/30 07:25:29;;;;;;;18.92;11.77;;;12.80;99.90;;;;;;5047929;28;20051;-79
2022/10/30 07:27:55;;;;;;;16.73;10.80;;;12.90;99.90;;;;;;5036280;28;20080;-80
2022/10/30 07:30:26;;;;;;;16.02;11.05;;;12.90;99.90;;;;;;5040184;28;20072;-78
2022/10/30 07:32:56;;;;;;;17.70;10.60;;;13.00;99.90;;;;;;5046176;28;20762;-80
2022/10/30 07:35:22;;;;;;;22.95;11.48;;;13.00;99.90;;;;;;5042550;28;20472;-80
2022/10/30 07:37:48;;;;;;;20.85;12.43;;;13.10;99.90;;;;;;5047416;28;20098;-79
2022/10/30 07:40:13;;;;;;;14.27;9.65;;;13.10;99.90;;;;;;5039565;28;20045;-81
2022/10/30 07:42:39;;;;;;;22.95;12.75;;;13.10;99.90;;;;;;5048668;28;20056;-80
2022/10/30 07:45:05;;;;;;;16.48;11.57;;;13.20;99.90;;;;;;5048780;28;20119;-80
2022/10/30 07:47:31;;;;;;;18.40;10.60;;;13.20;99.90;;;;;;5048857;28;20080;-80
2022/10/30 07:49:57;;;;;;;14.38;10.88;;;13.30;99.90;;;;;;5039069;28;21000;-80
2022/10/30 07:52:22;;;;;;;14.43;10.77;;;13.30;99.90;;;;;;5043535;28;20044;-79
2022/10/30 07:54:48;;;;;;;13.73;9.20;;;13.40;99.90;;;;;;5040196;28;20052;-80
2022/10/30 07:57:14;;;;;;;18.35;10.93;;;13.50;99.90;;;;;;5043198;28;20804;-82
2022/10/30 07:59:39;;;;;;;18.30;11.63;;;13.50;99.90;;;;;;5040987;28;20654;-78
2022/10/30 08:02:07;;;;;;;20.50;11.10;;;13.60;99.90;;;;;;5040728;28;20051;-79
2022/10/30 08:04:32;;;;;;;18.10;11.88;;;13.60;99.90;;;;;;5042706;28;20049;-83
2022/10/30 08:06:58;;;;;;;21.00;11.13;;;13.70;99.90;;;;;;5043144;28;20118;-81
2022/10/30 08:09:23;;;;;;;19.42;10.80;;;13.80;99.90;;;;;;5043713;28;20052;-81
2022/10/30 08:11:49;;;;;;;19.50;12.43;;;13.80;99.90;;;;;;5039502;28;20051;-79
2022/10/30 08:14:15;;;;;;;20.20;11.48;;;13.90;99.90;;;;;;5052553;28;20041;-80
2022/10/30 08:16:40;;;;;;;16.60;12.02;;;13.90;99.90;;;;;;5043669;28;20487;-79
2022/10/30 08:19:06;;;;;;;18.48;11.57;;;14.00;99.90;;;;;;5042729;28;20736;-78
2022/10/30 08:21:32;;;;;;;15.85;11.18;;;14.10;99.90;;;;;;5043982;28;20045;-78
2022/10/30 08:23:57;;;;;;;18.33;12.13;;;14.20;99.90;;;;;;5044615;28;20130;-79
2022/10/30 08:26:23;;;;;;;19.80;12.38;;;14.30;99.90;;;;;;5041489;28;20481;-79
2022/10/30 08:28:49;;;;;;;24.40;12.15;;;14.30;99.90;;;;;;5047752;28;20151;-80
2022/10/30 08:31:14;;;;;;;18.23;11.30;;;14.40;99.90;;;;;;5044443;28;20073;-80
2022/10/30 08:33:40;;;;;;;16.52;11.55;;;14.50;99.90;;;;;;5044279;28;20045;-81
2022/10/30 08:36:06;;;;;;;18.02;11.68;;;14.50;99.90;;;;;;5051939;28;20150;-80
2022/10/30 08:38:32;;;;;;;19.45;11.45;;;14.60;99.90;;;;;;5048633;28;20048;-80
2022/10/30 08:40:58;;;;;;;20.35;11.60;;;14.70;99.90;;;;;;5044557;28;20056;-79
2022/10/30 08:43:25;;;;;;;17.77;11.93;;;14.70;99.90;;;;;;5053958;28;20068;-79
2022/10/30 08:45:51;;;;;;;20.10;11.77;;;14.80;99.90;;;;;;5043852;28;20564;-79
2022/10/30 08:48:16;;;;;;;21.02;12.02;;;14.90;99.90;;;;;;5059350;28;20075;-79
2022/10/30 08:50:42;;;;;;;18.45;12.05;;;15.00;99.90;;;;;;5047248;28;20066;-78
2022/10/30 08:53:14;;;;;;;22.15;12.30;;;15.10;99.90;;;;;;5044458;28;20845;-78
2022/10/30 08:55:40;;;;;;;20.02;11.85;;;15.10;99.90;;;;;;5055509;28;20064;-78
2022/10/30 08:58:05;;;;;;;19.58;12.90;;;15.20;99.90;;;;;;5052715;28;20123;-80
2022/10/30 09:00:31;;;;;;;17.83;11.77;;;15.30;99.90;;;;;;5054248;28;20719;-78
2022/10/30 09:02:57;;;;;;;16.45;10.52;;;15.40;99.90;;;;;;5059926;28;20122;-79
2022/10/30 09:05:23;;;;;;;19.60;11.52;;;15.50;99.90;;;;;;5057958;28;20048;-79
2022/10/30 09:07:48;;;;;;;18.83;11.57;;;15.50;99.90;;;;;;5041027;28;20809;-77
2022/10/30 09:10:14;;;;;;;18.73;11.52;;;15.60;99.90;;;;;;5042779;28;20049;-79
2022/10/30 09:12:40;;;;;;;20.58;11.23;;;15.70;99.90;;;;;;5044791;28;20554;-79
2022/10/30 09:15:06;;;;;;;17.85;11.18;;;15.80;99.90;;;;;;5044527;28;20160;-79
2022/10/30 09:17:32;;;;;;;21.70;11.90;;;15.90;99.90;;;;;;5056555;28;20424;-79
2022/10/30 09:19:58;;;;;;;21.05;12.35;;;15.90;99.90;;;;;;5047026;28;20885;-80
2022/10/30 09:22:23;;;;;;;16.88;11.50;;;16.00;99.90;;;;;;5049863;28;20126;-79
2022/10/30 09:24:49;;;;;;;20.05;12.57;;;16.10;99.90;;;;;;5051989;28;20048;-78
2022/10/30 09:27:15;;;;;;;15.50;11.50;;;16.20;99.90;;;;;;5047261;28;20055;-79
2022/10/30 09:29:41;;;;;;;20.02;11.95;;;16.20;99.90;;;;;;5046698;28;20036;-79
2022/10/30 09:32:08;;;;;;;18.40;11.80;;;16.30;99.90;;;;;;5053033;28;20044;-77
2022/10/30 09:34:35;;;;;;;18.02;11.70;;;16.40;99.90;;;;;;5057584;28;20484;-79
2022/10/30 09:37:00;;;;;;;18.45;10.80;;;16.50;99.90;;;;;;5045171;28;20120;-79
2022/10/30 09:39:28;;;;;;;26.77;11.57;;;16.50;99.90;;;;;;5052470;28;20469;-77
2022/10/30 09:42:19;;;;;;;14.38;10.40;;;16.60;99.90;;;;;;5041715;28;20052;-77
2022/10/30 09:45:23;;;;;;;16.75;10.93;;;16.70;99.90;;;;;;5048742;28;20045;-79
2022/10/30 09:48:10;;;;;;;13.85;9.05;;;16.90;99.90;;;;;;5047166;28;20056;-79
2022/10/30 09:50:54;;;;;;;20.83;10.27;;;17.00;99.90;;;;;;5042419;28;20087;-79
2022/10/30 09:53:37;;;;;;;17.15;10.68;;;17.10;99.90;;;;;;5048577;28;20899;-78
2022/10/30 09:56:16;;;;;;;16.48;10.35;;;17.30;99.90;;;;;;5044841;28;20059;-79
2022/10/30 09:59:16;;;;;;;19.52;11.43;;;17.40;99.90;;;;;;5049702;28;20144;-78
2022/10/30 10:02:01;;;;;;;15.10;10.10;;;17.40;99.90;;;;;;5043729;28;20095;-78
2022/10/30 10:04:43;;;;;;;17.40;10.38;;;17.60;99.90;;;;;;5039143;28;20409;-79
2022/10/30 10:07:27;;;;;;;14.50;10.25;;;17.80;99.90;;;;;;5044423;28;20052;-78
2022/10/30 10:09:59;;;;;;;16.30;10.10;;;18.00;99.90;;;;;;5045464;28;20089;-79
2022/10/30 10:12:49;;;;;;;12.98;8.77;;;18.20;99.90;;;;;;5046263;28;20051;-79
2022/10/30 10:15:47;;;;;;;18.48;9.55;;;18.40;99.90;;;;;;5041174;28;20075;-79
2022/10/30 10:18:19;;;;;;;15.05;8.35;;;18.60;99.90;;;;;;5050653;28;20049;-79
2022/10/30 10:20:49;;;;;;;11.55;9.10;;;18.80;99.90;;;;;;5040961;28;20590;-80
2022/10/30 10:23:26;;;;;;;15.00;8.23;;;18.90;99.90;;;;;;5055023;28;20048;-78
2022/10/30 10:25:53;;;;;;;12.15;7.55;;;19.10;99.90;;;;;;5040225;28;20498;-79
2022/10/30 10:28:47;;;;;;;17.75;10.30;;;19.10;99.90;;;;;;5038312;28;20076;-79
2022/10/30 10:31:12;;;;;;;;;;;19.10;99.90;;;;;;5049806;28;20053;-79
2022/10/30 10:34:14;;;;;;;14.60;8.50;;;19.00;99.90;;;;;;5051947;28;19925;-80
2022/10/30 10:37:03;;;;;;;16.15;9.07;;;19.00;99.90;;;;;;5047802;28;20123;-79
2022/10/30 10:39:44;;;;;;;12.77;7.53;;;19.00;99.90;;;;;;5043530;28;20044;-79
2022/10/30 10:42:21;;;;;;;14.55;8.13;;;19.00;99.90;;;;;;5048157;28;20138;-79
2022/10/30 10:44:59;;;;;;;9.77;6.13;;;19.00;99.90;;;;;;5043726;28;20918;-79
2022/10/30 10:47:52;;;;;;;11.45;7.32;;;19.20;99.90;;;;;;5045874;28;20063;-78
2022/10/30 10:50:24;;;;;;;12.25;5.47;;;19.30;99.90;;;;;;5040798;28;20045;-79
2022/10/30 10:53:02;;;;;;;14.20;8.23;;;19.40;99.90;;;;;;5046479;28;20606;-79
2022/10/30 10:55:32;;;;;;;16.90;7.10;;;19.50;99.90;;;;;;5042949;28;20084;-79
2022/10/30 10:58:27;;;;;;;14.38;7.82;;;19.60;99.90;;;;;;5040764;28;20048;-78
2022/10/30 11:00:55;;;;;;;13.15;6.68;;;19.60;99.90;;;;;;5035491;28;20048;-78
2022/10/30 11:03:26;;;;;;;15.73;7.63;;;19.60;99.90;;;;;;5046190;28;20694;-79
2022/10/30 11:06:10;;;;;;;10.40;8.10;;;19.70;99.90;;;;;;5038011;28;20099;-78
2022/10/30 11:08:36;;;;;;;15.20;9.50;;;19.70;99.90;;;;;;5048415;28;20080;-78
2022/10/30 11:11:04;;;;;;;17.30;8.32;;;19.60;99.90;;;;;;5042010;28;20136;-80
2022/10/30 11:13:34;;;;;;;16.65;7.63;;;19.60;99.90;;;;;;5041940;28;20040;-80
2022/10/30 11:16:12;;;;;;;15.65;7.38;;;19.50;99.90;;;;;;5051823;28;20509;-81
2022/10/30 11:18:39;;;;;;;17.00;7.15;;;19.60;99.90;;;;;;5038935;28;20104;-79
2022/10/30 11:21:17;;;;;;;10.68;7.10;;;19.70;99.90;;;;;;5046362;28;20052;-80
2022/10/30 11:23:47;;;;;;;11.98;6.63;;;19.70;99.90;;;;;;5041869;28;20119;-79
2022/10/30 11:26:16;;;;;;;13.18;6.75;;;19.80;99.90;;;;;;5054875;28;20573;-79
2022/10/30 11:28:49;;;;;;;10.50;6.55;;;19.80;99.90;;;;;;5045214;28;20076;-79
2022/10/30 11:31:20;;;;;;;12.85;6.70;;;19.90;99.90;;;;;;5051016;28;20167;-80
2022/10/30 11:33:46;;;;;;;12.52;6.65;;;19.90;99.90;;;;;;5050025;28;20044;-80
2022/10/30 11:36:23;;;;;;;13.90;5.95;;;19.90;99.90;;;;;;5042855;28;20566;-79
2022/10/30 11:38:50;;;;;;;12.95;6.50;;;20.00;99.90;;;;;;5035676;28;20559;-80
2022/10/30 11:41:17;;;;;;;11.82;6.53;;;20.00;99.90;;;;;;5039318;28;20061;-80
2022/10/30 11:43:43;;;;;;;10.18;5.82;;;20.00;99.90;;;;;;5051429;28;20902;-79
2022/10/30 11:46:19;;;;;;;12.80;6.30;;;20.00;99.90;;;;;;5043081;28;20062;-78
2022/10/30 11:48:45;;;;;;;9.50;5.70;;;20.00;99.90;;;;;;5044570;28;20051;-80
2022/10/30 11:51:12;;;;;;;9.52;6.18;;;20.00;99.90;;;;;;5042951;28;20155;-79
2022/10/30 11:53:56;;;;;;;10.10;5.97;;;20.10;99.90;;;;;;5043902;28;20757;-78
2022/10/30 11:56:22;;;;;;;11.20;5.70;;;20.10;99.90;;;;;;5039644;28;20131;-79
2022/10/30 11:58:54;;;;;;;10.02;6.55;;;20.10;99.90;;;;;;5048241;28;20072;-78
2022/10/30 12:01:25;;;;;;;7.65;5.68;;;20.10;99.90;;;;;;5042008;28;20044;-79
2022/10/30 12:03:53;;;;;;;11.43;6.53;;;20.10;99.90;;;;;;5036697;28;20056;-80
2022/10/30 12:06:21;;;;;;;11.95;6.57;;;20.10;99.90;;;;;;5036796;28;20067;-79
2022/10/30 12:09:17;;;;;;;8.98;5.88;;;20.30;99.90;;;;;;5041858;28;20048;-79
2022/10/30 12:11:44;;;;;;;16.38;7.25;;;20.50;99.90;;;;;;5041528;28;20060;-80
2022/10/30 12:14:16;;;;;;;12.07;6.95;;;20.60;99.90;;;;;;5047692;28;20136;-80
2022/10/30 12:16:47;;;;;;;10.82;6.32;;;20.70;99.90;;;;;;5042671;28;20053;-79
2022/10/30 12:19:15;;;;;;;12.07;5.80;;;20.70;99.90;;;;;;5043179;28;20124;-79
2022/10/30 12:21:48;;;;;;;10.80;5.43;;;20.70;99.90;;;;;;5041124;28;20041;-80
2022/10/30 12:24:22;;;;;;;10.35;5.35;;;20.70;99.90;;;;;;5050520;28;20049;-79
2022/10/30 12:26:51;;;;;;;15.18;6.28;;;20.60;99.90;;;;;;5051768;28;20052;-79
2022/10/30 12:29:20;;;;;;;10.02;5.22;;;20.60;99.90;;;;;;5049462;28;20041;-79
2022/10/30 12:31:58;;;;;;;9.23;5.80;;;20.50;99.90;;;;;;5046238;28;20045;-79
2022/10/30 12:34:39;;;;;;;11.73;5.75;;;20.50;99.90;;;;;;5041358;28;20056;-80
2022/10/30 12:37:23;;;;;;;14.80;5.88;;;20.50;99.90;;;;;;5050293;28;20127;-78
2022/10/30 12:40:02;;;;;;;7.90;5.70;;;20.50;99.90;;;;;;5046770;28;20041;-79
2022/10/30 12:42:34;;;;;;;7.85;5.72;;;20.50;99.90;;;;;;5058726;28;20052;-78
2022/10/30 12:45:14;;;;;;;12.02;6.30;;;20.50;99.90;;;;;;5048183;28;20102;-78
2022/10/30 12:47:58;;;;;;;10.30;5.70;;;20.60;99.90;;;;;;5052738;28;20049;-84